Stewart, MN (55385)

12:22 PM CST on February 07, 2016 (GMT -0600)
backyard at 446 Borden Ave. | | Change Station
CLOSE
Current Station
Personal Weather Station
Location: Buffalo Lake, MN
Elevation: 1073 ft
Nearby Weather Stations
Active Advisory: Blizzard Warning

Elev 1073 ft 44.74 °N, 94.62 °W | Updated 13 minutes ago

Partly Cloudy
Partly Cloudy
39.6 °F
Feels Like 33 °F
N
10.9
Wind Variable Wind from West

Today
High -- | Low -- °F
--% Chance of Precip.
Yesterday
High -- | Low -- °F
Precip. -- in
Pressure 29.66 in
Visibility 10.0 miles
Clouds Scattered Clouds 3800 ft
Overcast 4600 ft
Windchill 33 °F
Dew Point 29 °F
Humidity 65%
Rainfall 0.00 in
Snow Depth Not available.
7:30 AM 5:34 PM
Waning Crescent, 1% visible
METAR KHCD 071813Z AUTO 27020G25KT 10SM SCT038 OVC046 04/M01 A2966 RMK AO2 T00351011
Pressure 29.66 in
Visibility 10.0 miles
Clouds Scattered Clouds 3800 ft
Overcast 4600 ft
Windchill 33 °F
Dew Point 29 °F
Humidity 65%
Rainfall 0.00 in
Snow Depth Not available.
7:30 AM 5:34 PM
Waning Crescent, 1% visible
METAR KHCD 071813Z AUTO 27020G25KT 10SM SCT038 OVC046 04/M01 A2966 RMK AO2 T00351011

10-Day Weather Forecast

Almanac

Astronomy

Feb. 07, 2016 Rise Set
Actual Time
Civil Twilight
Nautical Twilight
Astronomical Twilight
Moon
Length of Visible Light
Length of Day
Tomorrow will be .
, % of the Moon is Illuminated

Today's Extremes

State Highs State Lows

Community

WunderPhotos

Upload Photos

1,891,276 photos uploaded!

WunderBlog® & News

Nearby

Air Quality

  Air Quality AQ Index Pollutant
Not available.

Snow Depth

Station Depth Elevation

Earthquake Activity

City Distance Mag. Time & Date
Minimum magnitude displayed is 2.5.

Coastal Water Temperatures

Place Temperature

Stations

Nearby Weather Stations

Station Location Temp. Windchill Dew Point Humidity Wind Precip. Elev Updated Type
                   

Watches & Warnings

Blizzard Warning
Issued: 10:11 AM CST Feb. 7, 2016 – National Weather Service

... Blizzard Warning remains in effect from 4 PM this afternoon to
noon CST Monday...

* expect blizzard conditions to develop after 4 PM this
afternoon and then diminish around noon Monday.

* Winds gusting as high as 55 mph will cause whiteout conditions
in blowing snow. Significant drifting of the snow is likely.

* Snow accumulations of up to 1 inch are expected.

* Travel will be very difficult or impossible and Road closures
are possible.

Precautionary/preparedness actions...

A Blizzard Warning means severe winter weather conditions are
expected. If you must travel... have a winter survival kit with
you. If you get stranded... stay with your vehicle. The latest
Road conditions for the state you are calling from can be
obtained by calling 5 1 1.